createdAt,value
2023-02-16T00:01:54.705Z,100877.44
2023-02-16T00:06:56.195Z,100891.94
2023-02-16T00:12:15.929Z,100891.50
2023-02-16T00:17:17.306Z,100882.69
2023-02-16T00:22:18.738Z,100888.97
2023-02-16T00:27:20.111Z,100888.59
2023-02-16T00:32:21.516Z,100898.88
2023-02-16T00:37:22.903Z,100887.09
2023-02-16T00:42:26.752Z,100879.50
2023-02-16T00:47:37.293Z,100877.66
2023-02-16T00:52:42.576Z,100887.09
2023-02-16T00:58:00.118Z,100886.06
2023-02-16T01:03:02.881Z,100880.56
2023-02-16T01:08:28.250Z,100873.44
2023-02-16T01:13:29.710Z,100874.13
2023-02-16T01:18:31.084Z,100873.44
2023-02-16T01:23:32.527Z,100869.25
2023-02-16T01:28:34.442Z,100858.69
2023-02-16T01:33:35.826Z,100856.00
2023-02-16T01:38:37.208Z,100857.28
2023-02-16T01:43:46.669Z,100856.88
2023-02-16T01:48:48.048Z,100854.53
2023-02-16T01:54:27.507Z,100848.22
2023-02-16T01:59:44.173Z,100854.75
2023-02-16T02:05:18.610Z,100853.72
2023-02-16T02:10:33.367Z,100851.19
2023-02-16T02:15:34.850Z,100844.25
2023-02-16T02:21:09.275Z,100845.97
2023-02-16T02:26:19.796Z,100848.44
2023-02-16T02:31:30.199Z,100844.25
2023-02-16T02:36:51.907Z,100855.81
2023-02-16T02:42:08.849Z,100845.97
2023-02-16T02:47:10.287Z,100849.72
2023-02-16T02:52:11.677Z,100836.69
2023-02-16T02:57:39.677Z,100839.22
2023-02-16T03:02:41.111Z,100821.78
2023-02-16T03:07:48.870Z,100819.94
2023-02-16T03:12:50.318Z,100814.03
2023-02-16T03:18:10.775Z,100819.66
2023-02-16T03:23:30.603Z,100840.66
2023-02-16T03:28:50.726Z,100837.16
2023-02-16T03:33:54.453Z,100840.50
2023-02-16T03:38:55.996Z,100835.44
2023-02-16T03:43:57.379Z,100842.78
2023-02-16T03:48:58.763Z,100847.25
2023-02-16T03:54:00.179Z,100855.44
2023-02-16T03:59:01.580Z,100855.59
2023-02-16T04:04:03.023Z,100841.72
2023-02-16T04:09:04.394Z,100840.25
2023-02-16T04:14:05.778Z,100832.75
2023-02-16T04:19:07.792Z,100850.13
2023-02-16T04:24:09.162Z,100844.25
2023-02-16T04:29:10.593Z,100838.16
2023-02-16T04:34:11.979Z,100832.31
2023-02-16T04:39:13.367Z,100836.31
2023-02-16T04:44:14.756Z,100829.97
2023-02-16T04:49:16.162Z,100817.38
2023-02-16T04:54:17.543Z,100819.28
2023-02-16T04:59:18.922Z,100819.28
2023-02-16T05:04:20.432Z,100822.81
2023-02-16T05:09:21.823Z,100825.31
2023-02-16T05:14:42.663Z,100820.53
2023-02-16T05:19:46.201Z,100824.16
2023-02-16T05:24:47.746Z,100823.50
2023-02-16T05:29:49.232Z,100829.97
2023-02-16T05:34:50.700Z,100837.31
2023-02-16T05:39:52.790Z,100840.09
2023-02-16T05:44:54.187Z,100848.09
2023-02-16T05:49:55.586Z,100850.53
2023-02-16T05:54:56.965Z,100846.97
2023-02-16T05:59:58.333Z,100859.22
2023-02-16T06:04:59.729Z,100843.44
2023-02-16T06:10:01.118Z,100850.75
2023-02-16T06:15:04.080Z,100864.59
2023-02-16T06:20:06.126Z,100851.19
2023-02-16T06:25:07.550Z,100848.09
2023-02-16T06:30:09.230Z,100854.75
2023-02-16T06:35:10.670Z,100855.81
2023-02-16T06:40:15.395Z,100851.19
2023-02-16T06:45:16.797Z,100858.53
2023-02-16T06:50:18.962Z,100854.16
2023-02-16T06:55:20.347Z,100846.75
2023-02-16T07:00:24.437Z,100857.91
2023-02-16T07:05:25.869Z,100846.38
2023-02-16T07:10:34.648Z,100844.72
2023-02-16T07:15:41.678Z,100836.25
2023-02-16T07:20:43.071Z,100844.03
2023-02-16T07:25:44.463Z,100826.16
2023-02-16T07:30:45.884Z,100828.97
2023-02-16T07:35:47.249Z,100830.63
2023-02-16T07:40:48.631Z,100847.81
2023-02-16T07:45:50.086Z,100861.25
2023-02-16T07:50:51.483Z,100852.88
2023-02-16T07:55:52.859Z,100841.53
2023-02-16T08:01:00.437Z,100842.34
2023-02-16T08:06:02.805Z,100847.59
2023-02-16T08:11:10.789Z,100859.38
2023-02-16T08:16:14.028Z,100864.84
2023-02-16T08:21:17.252Z,100870.13
2023-02-16T08:26:18.791Z,100872.19
2023-02-16T08:31:23.430Z,100859.38
2023-02-16T08:36:32.157Z,100857.28
2023-02-16T08:41:36.007Z,100861.06
2023-02-16T08:46:41.359Z,100854.56
2023-02-16T08:51:47.445Z,100849.06
2023-02-16T08:56:49.509Z,100844.03
2023-02-16T09:01:50.931Z,100844.25
2023-02-16T09:06:52.355Z,100836.47
2023-02-16T09:11:53.744Z,100835.03
2023-02-16T09:16:55.157Z,100831.22
2023-02-16T09:21:56.683Z,100826.84
2023-02-16T09:26:58.057Z,100837.75
2023-02-16T09:31:59.572Z,100827.84
2023-02-16T09:37:00.971Z,100836.84
2023-02-16T09:42:37.960Z,100829.50
2023-02-16T09:47:44.880Z,100818.16
2023-02-16T09:53:08.552Z,100821.78
2023-02-16T09:58:21.464Z,100826.34
2023-02-16T10:03:26.549Z,100827.41
2023-02-16T10:08:53.118Z,100831.63
2023-02-16T10:13:55.097Z,100829.56
2023-02-16T10:18:56.510Z,100834.78
2023-02-16T10:24:00.967Z,100831.00
2023-02-16T10:29:20.558Z,100831.19
2023-02-16T10:34:40.408Z,100829.50
2023-02-16T10:40:05.585Z,100812.31
2023-02-16T10:45:06.957Z,100811.47
2023-02-16T10:50:15.776Z,100809.31
2023-02-16T10:55:17.164Z,100796.94
2023-02-16T11:00:19.264Z,100787.22
2023-02-16T11:05:26.998Z,100793.56
2023-02-16T11:10:42.023Z,100796.31
2023-02-16T11:15:43.432Z,100781.41
2023-02-16T11:20:45.009Z,100785.34
2023-02-16T11:26:08.680Z,100776.59
2023-02-16T11:31:33.036Z,100779.31
2023-02-16T11:36:37.491Z,100769.63
2023-02-16T11:41:38.942Z,100759.91
2023-02-16T11:46:40.495Z,100753.84
2023-02-16T11:51:41.910Z,100751.34
2023-02-16T11:56:44.132Z,100740.19
2023-02-16T12:02:04.540Z,100730.69
2023-02-16T12:07:30.388Z,100744.59
2023-02-16T12:12:34.663Z,100727.97
2023-02-16T12:18:20.924Z,100732.69
2023-02-16T12:23:43.772Z,100721.50
2023-02-16T12:29:01.313Z,100710.75
2023-02-16T12:34:28.460Z,100717.03
2023-02-16T12:39:31.867Z,100706.34
2023-02-16T12:44:37.868Z,100708.44
2023-02-16T12:49:45.096Z,100703.63
2023-02-16T12:54:49.336Z,100696.03
2023-02-16T12:59:56.514Z,100693.75
2023-02-16T13:05:55.895Z,100688.53
2023-02-16T13:11:08.354Z,100687.53
2023-02-16T13:16:43.924Z,100684.19
2023-02-16T13:21:53.961Z,100679.41
2023-02-16T13:27:37.310Z,100668.41
2023-02-16T13:32:48.595Z,100665.84
2023-02-16T13:38:26.914Z,100667.28
2023-02-16T13:43:37.507Z,100669.41
2023-02-16T13:48:46.365Z,100665.44
2023-02-16T13:53:59.108Z,100668.28
2023-02-16T13:59:29.827Z,100670.47
2023-02-16T14:04:31.082Z,100673.88
2023-02-16T14:09:38.674Z,100682.25
2023-02-16T14:14:44.284Z,100681.41
2023-02-16T14:20:05.060Z,100687.06
2023-02-16T14:25:27.368Z,100683.34
2023-02-16T14:30:36.231Z,100687.97
2023-02-16T14:35:38.947Z,100682.91
2023-02-16T14:40:55.360Z,100690.25
2023-02-16T14:46:38.508Z,100694.97
2023-02-16T14:52:10.966Z,100685.09
2023-02-16T14:57:33.669Z,100691.16
2023-02-16T15:02:37.875Z,100687.53
2023-02-16T15:07:39.272Z,100687.53
2023-02-16T15:12:41.075Z,100692.94
2023-02-16T15:17:48.419Z,100685.25
2023-02-16T15:22:55.186Z,100677.22
2023-02-16T15:28:00.669Z,100679.66
2023-02-16T15:33:04.141Z,100678.59
2023-02-16T15:38:25.470Z,100671.84
2023-02-16T15:43:43.376Z,100672.66
2023-02-16T15:48:45.831Z,100671.16
2023-02-16T15:54:15.433Z,100668.94
2023-02-16T15:59:38.409Z,100672.06
2023-02-16T16:04:50.102Z,100663.63
2023-02-16T16:09:51.964Z,100659.38
2023-02-16T16:14:55.886Z,100663.25
2023-02-16T16:19:58.226Z,100666.28
2023-02-16T16:25:00.018Z,100670.88
2023-02-16T16:30:28.209Z,100659.72
2023-02-16T16:35:40.503Z,100666.63
2023-02-16T16:40:41.887Z,100671.72
2023-02-16T16:45:51.412Z,100670.47
2023-02-16T16:51:11.855Z,100669.03
2023-02-16T16:56:16.430Z,100671.97
2023-02-16T17:01:18.725Z,100664.78
2023-02-16T17:06:20.299Z,100661.41
2023-02-16T17:11:28.920Z,100667.28
2023-02-16T17:16:32.505Z,100665.00
2023-02-16T17:21:33.899Z,100663.94
2023-02-16T17:26:35.489Z,100671.69
2023-02-16T17:31:36.911Z,100666.28
2023-02-16T17:36:38.672Z,100661.38
2023-02-16T17:41:40.053Z,100650.34
2023-02-16T17:46:41.434Z,100652.03
2023-02-16T17:51:42.853Z,100641.47
2023-02-16T17:56:44.428Z,100639.34
2023-02-16T18:01:45.851Z,100642.91
2023-02-16T18:06:47.231Z,100645.88
2023-02-16T18:11:48.618Z,100644.81
2023-02-16T18:16:53.214Z,100645.88
2023-02-16T18:21:54.765Z,100646.56
2023-02-16T18:26:56.162Z,100661.13
2023-02-16T18:31:57.781Z,100659.38
2023-02-16T18:36:59.181Z,100650.13
2023-02-16T18:42:00.565Z,100659.63
2023-02-16T18:47:01.997Z,100659.84
2023-02-16T18:52:03.406Z,100661.91
2023-02-16T18:57:04.783Z,100658.72
2023-02-16T19:02:06.243Z,100658.94
2023-02-16T19:07:07.859Z,100664.47
2023-02-16T19:12:09.238Z,100683.38
2023-02-16T19:17:10.614Z,100686.72
2023-02-16T19:22:11.990Z,100689.25
2023-02-16T19:27:13.355Z,100673.66
2023-02-16T19:32:14.858Z,100666.75
2023-02-16T19:37:16.260Z,100660.44
2023-02-16T19:42:17.638Z,100659.19
2023-02-16T19:47:19.014Z,100659.97
2023-02-16T19:52:20.419Z,100651.88
2023-02-16T19:57:21.980Z,100651.34
2023-02-16T20:02:23.462Z,100649.75
2023-02-16T20:07:24.875Z,100648.25
2023-02-16T20:12:28.405Z,100641.94
2023-02-16T20:17:29.783Z,100646.03
2023-02-16T20:22:31.167Z,100640.25
2023-02-16T20:27:32.592Z,100639.81
2023-02-16T20:32:33.965Z,100639.59
2023-02-16T20:37:35.385Z,100638.75
2023-02-16T20:42:36.767Z,100644.13
2023-02-16T20:47:38.217Z,100642.16
2023-02-16T20:52:39.872Z,100640.63
2023-02-16T20:57:41.247Z,100639.34
2023-02-16T21:02:42.789Z,100627.81
2023-02-16T21:07:44.198Z,100624.69
2023-02-16T21:12:46.415Z,100632.91
2023-02-16T21:17:47.918Z,100626.50
2023-02-16T21:22:49.373Z,100618.31
2023-02-16T21:27:50.759Z,100618.97
2023-02-16T21:32:52.144Z,100618.00
2023-02-16T21:37:53.560Z,100618.63
2023-02-16T21:42:54.952Z,100605.56
2023-02-16T21:48:14.568Z,100590.59
2023-02-16T21:53:15.979Z,100586.81
2023-02-16T21:58:17.561Z,100587.88
2023-02-16T22:03:20.245Z,100576.56
2023-02-16T22:08:21.640Z,100575.63
2023-02-16T22:13:23.012Z,100576.25
2023-02-16T22:18:24.394Z,100574.59
2023-02-16T22:23:25.758Z,100565.16
2023-02-16T22:28:27.187Z,100564.31
2023-02-16T22:33:28.561Z,100554.84
2023-02-16T22:38:29.963Z,100559.88
2023-02-16T22:43:31.344Z,100553.56
2023-02-16T22:48:32.733Z,100564.56
2023-02-16T22:53:34.280Z,100547.13
2023-02-16T22:58:35.904Z,100538.47
2023-02-16T23:03:37.295Z,100528.50
2023-02-16T23:08:38.667Z,100513.16
2023-02-16T23:13:40.046Z,100512.56
2023-02-16T23:18:41.573Z,100497.94
2023-02-16T23:23:43.049Z,100505.88
2023-02-16T23:28:44.475Z,100505.19
2023-02-16T23:33:45.849Z,100503.97
2023-02-16T23:38:47.216Z,100497.09
2023-02-16T23:43:48.587Z,100488.63
2023-02-16T23:48:50.060Z,100482.13
2023-02-16T23:53:51.474Z,100476.41
2023-02-16T23:58:52.875Z,100458.94
